Time;durP1;ratioP1;P1;durP2;ratioP2;P2;SDS_P1;SDS_P2;PMS_P1;PMS_P2;Temp;Humidity;BMP_temperature;BMP_pressure;BME280_temperature;BME280_humidity;BME280_pressure;Samples;Min_cycle;Max_cycle;Signal;HPM_P1;HPM_P2
2022/08/07 00:00:27;;;;;;;11.68;6.70;;;11.60;99.90;;;;;;4973002;28;20050;-68
2022/08/07 00:02:57;;;;;;;12.10;6.72;;;11.50;99.90;;;;;;4989873;28;20587;-68
2022/08/07 00:05:24;;;;;;;11.65;6.80;;;11.50;99.90;;;;;;4985290;28;20134;-70
2022/08/07 00:07:50;;;;;;;9.70;6.53;;;11.50;99.90;;;;;;4983525;28;20417;-68
2022/08/07 00:10:16;;;;;;;12.18;7.03;;;11.50;99.90;;;;;;4981864;28;20102;-70
2022/08/07 00:12:42;;;;;;;12.25;7.78;;;11.30;99.90;;;;;;4983315;28;20145;-67
2022/08/07 00:15:09;;;;;;;12.32;7.35;;;11.30;99.90;;;;;;4967674;28;20442;-67
2022/08/07 00:17:36;;;;;;;14.40;8.80;;;11.30;99.90;;;;;;5018860;28;20046;-68
2022/08/07 00:20:05;;;;;;;21.13;8.15;;;11.40;99.90;;;;;;5005585;28;20054;-72
2022/08/07 00:22:31;;;;;;;15.60;8.70;;;11.50;99.90;;;;;;4975270;28;20047;-68
2022/08/07 00:24:57;;;;;;;13.07;7.88;;;11.60;99.90;;;;;;5005852;28;20062;-70
2022/08/07 00:27:23;;;;;;;14.27;8.88;;;11.60;99.90;;;;;;4977328;28;20050;-67
2022/08/07 00:29:49;;;;;;;12.00;7.35;;;11.70;99.90;;;;;;4982959;28;20043;-67
2022/08/07 00:32:15;;;;;;;13.30;7.88;;;11.60;99.90;;;;;;4981991;28;20536;-67
2022/08/07 00:34:41;;;;;;;12.15;7.82;;;11.50;99.90;;;;;;4974668;28;20129;-70
2022/08/07 00:37:07;;;;;;;13.32;7.95;;;11.40;99.90;;;;;;4978479;28;20129;-67
2022/08/07 00:39:34;;;;;;;14.57;9.05;;;11.40;99.90;;;;;;5003686;28;20050;-67
2022/08/07 00:42:01;;;;;;;12.68;8.18;;;11.30;99.90;;;;;;5001227;28;20061;-68
2022/08/07 00:44:27;;;;;;;15.85;9.02;;;11.20;99.90;;;;;;5003323;28;20060;-67
2022/08/07 00:46:54;;;;;;;16.17;8.52;;;11.20;99.90;;;;;;4994262;28;20109;-67
2022/08/07 00:49:20;;;;;;;18.38;9.63;;;11.20;99.90;;;;;;5004170;28;20047;-67
2022/08/07 00:51:46;;;;;;;15.75;8.80;;;11.10;99.90;;;;;;5004136;28;20062;-68
2022/08/07 00:54:14;;;;;;;14.63;9.23;;;11.10;99.90;;;;;;5001713;28;20538;-68
2022/08/07 00:56:40;;;;;;;16.25;9.20;;;11.10;99.90;;;;;;4971311;28;20089;-68
2022/08/07 00:59:06;;;;;;;14.60;8.95;;;11.00;99.90;;;;;;5010260;28;20686;-67
2022/08/07 01:01:33;;;;;;;16.52;8.15;;;11.10;99.90;;;;;;5001922;28;20074;-67
2022/08/07 01:03:59;;;;;;;17.00;9.20;;;11.10;99.90;;;;;;5004319;28;20055;-67
2022/08/07 01:06:26;;;;;;;15.00;8.90;;;11.20;99.90;;;;;;4990118;28;20047;-68
2022/08/07 01:08:52;;;;;;;15.60;9.38;;;11.20;99.90;;;;;;5011840;28;20047;-68
2022/08/07 01:11:18;;;;;;;14.98;9.48;;;11.20;99.90;;;;;;4994463;28;20397;-67
2022/08/07 01:13:44;;;;;;;12.90;8.10;;;11.00;99.90;;;;;;4994124;28;20058;-70
2022/08/07 01:16:10;;;;;;;15.15;8.68;;;11.00;99.90;;;;;;4985992;28;20050;-67
2022/08/07 01:18:36;;;;;;;16.63;9.25;;;10.80;99.90;;;;;;5005079;28;20054;-67
2022/08/07 01:21:13;;;;;;;17.23;9.38;;;10.80;99.90;;;;;;4982307;28;20050;-67
2022/08/07 01:23:42;;;;;;;15.80;9.18;;;10.80;99.90;;;;;;4968372;28;20039;-68
2022/08/07 01:26:10;;;;;;;15.75;9.32;;;10.90;99.90;;;;;;5000666;28;20704;-68
2022/08/07 01:28:37;;;;;;;15.80;8.85;;;10.80;99.90;;;;;;4975455;28;20051;-67
2022/08/07 01:31:03;;;;;;;12.55;7.47;;;10.80;99.90;;;;;;4976455;28;20077;-67
2022/08/07 01:33:30;;;;;;;12.60;7.72;;;10.80;99.90;;;;;;5006777;28;20046;-68
2022/08/07 01:35:59;;;;;;;16.65;9.13;;;10.80;99.90;;;;;;4976617;28;20512;-67
2022/08/07 01:38:25;;;;;;;16.27;9.30;;;10.80;99.90;;;;;;4987482;28;20516;-67
2022/08/07 01:40:55;;;;;;;16.48;9.30;;;10.80;99.90;;;;;;4989258;28;20046;-67
2022/08/07 01:43:20;;;;;;;16.73;9.02;;;10.80;99.90;;;;;;5002704;28;20079;-68
2022/08/07 01:45:47;;;;;;;13.38;8.30;;;10.80;99.90;;;;;;4965105;28;20070;-67
2022/08/07 01:48:13;;;;;;;15.75;8.75;;;10.80;99.90;;;;;;4967810;28;20700;-69
2022/08/07 01:50:40;;;;;;;12.73;7.80;;;10.80;99.90;;;;;;4961472;28;20047;-67
2022/08/07 01:53:08;;;;;;;12.10;7.47;;;10.70;99.90;;;;;;4981066;28;20046;-68
2022/08/07 01:55:38;;;;;;;12.73;7.32;;;10.70;99.90;;;;;;4963114;28;20069;-67
2022/08/07 01:58:09;;;;;;;14.07;8.00;;;10.70;99.90;;;;;;5004937;28;20139;-67
2022/08/07 02:00:37;;;;;;;14.80;8.43;;;10.70;99.90;;;;;;4985408;28;20125;-67
2022/08/07 02:03:11;;;;;;;14.45;7.45;;;10.70;99.90;;;;;;4974114;28;20054;-67
2022/08/07 02:05:46;;;;;;;16.50;8.80;;;10.70;99.90;;;;;;4971864;28;20051;-67
2022/08/07 02:08:16;;;;;;;9.63;6.63;;;10.70;99.90;;;;;;5005779;28;20050;-67
2022/08/07 02:10:44;;;;;;;11.98;7.20;;;10.70;99.90;;;;;;5002921;28;20054;-68
2022/08/07 02:13:12;;;;;;;15.25;8.50;;;10.70;99.90;;;;;;5000500;28;20050;-67
2022/08/07 02:15:40;;;;;;;16.52;9.35;;;10.60;99.90;;;;;;5005411;28;20571;-67
2022/08/07 02:18:10;;;;;;;16.90;9.90;;;10.70;99.90;;;;;;4987564;28;20077;-67
2022/08/07 02:20:37;;;;;;;17.10;9.05;;;10.70;99.90;;;;;;4975083;28;20043;-68
2022/08/07 02:23:05;;;;;;;18.60;9.55;;;10.70;99.90;;;;;;4980158;28;20057;-67
2022/08/07 02:25:33;;;;;;;17.45;9.73;;;10.70;99.90;;;;;;4968707;28;20043;-67
2022/08/07 02:28:01;;;;;;;19.15;10.30;;;10.60;99.90;;;;;;5000722;28;20066;-67
2022/08/07 02:30:29;;;;;;;11.35;6.97;;;10.60;99.90;;;;;;4984867;28;20113;-67
2022/08/07 02:32:57;;;;;;;12.98;7.65;;;10.60;99.90;;;;;;5001032;28;20136;-71
2022/08/07 02:35:24;;;;;;;17.55;9.48;;;10.50;99.90;;;;;;4999771;28;20116;-70
2022/08/07 02:37:52;;;;;;;17.17;9.70;;;10.50;99.90;;;;;;4985348;28;20053;-68
2022/08/07 02:40:18;;;;;;;19.83;10.77;;;10.50;99.90;;;;;;4968605;28;20046;-71
2022/08/07 02:42:45;;;;;;;19.48;10.55;;;10.50;99.90;;;;;;5003763;28;20113;-69
2022/08/07 02:45:15;;;;;;;19.70;10.57;;;10.50;99.90;;;;;;4974060;28;20064;-68
2022/08/07 02:47:42;;;;;;;18.50;9.52;;;10.50;99.90;;;;;;5002216;28;20051;-73
2022/08/07 02:50:08;;;;;;;19.33;10.52;;;10.50;99.90;;;;;;4981855;28;20486;-67
2022/08/07 02:52:46;;;;;;;15.48;9.40;;;10.50;99.90;;;;;;4986974;28;20616;-67
2022/08/07 02:55:18;;;;;;;17.20;8.85;;;10.50;99.90;;;;;;4968928;28;20059;-72
2022/08/07 02:57:46;;;;;;;14.95;9.25;;;10.40;99.90;;;;;;4994586;28;20451;-68
2022/08/07 03:00:14;;;;;;;16.23;9.85;;;10.40;99.90;;;;;;4978584;28;20050;-71
2022/08/07 03:02:44;;;;;;;15.10;9.23;;;10.30;99.90;;;;;;5000426;28;20054;-72
2022/08/07 03:05:11;;;;;;;12.15;7.47;;;10.30;99.90;;;;;;5001525;28;20049;-68
2022/08/07 03:07:39;;;;;;;13.48;7.10;;;10.30;99.90;;;;;;5004378;28;20047;-69
2022/08/07 03:10:07;;;;;;;12.85;7.90;;;10.20;99.90;;;;;;4984809;28;20576;-68
2022/08/07 03:12:34;;;;;;;16.02;9.32;;;10.20;99.90;;;;;;4979097;28;20057;-68
2022/08/07 03:15:01;;;;;;;16.75;10.07;;;10.20;99.90;;;;;;5005553;28;20042;-67
2022/08/07 03:17:28;;;;;;;15.48;8.95;;;10.20;99.90;;;;;;4987483;28;20054;-67
2022/08/07 03:19:55;;;;;;;12.68;7.85;;;10.20;99.90;;;;;;5004044;28;20477;-67
2022/08/07 03:22:23;;;;;;;12.18;7.53;;;10.20;99.90;;;;;;4981671;28;20054;-67
2022/08/07 03:24:50;;;;;;;17.50;10.20;;;10.20;99.90;;;;;;5019796;28;20042;-67
2022/08/07 03:27:17;;;;;;;17.20;9.88;;;10.20;99.90;;;;;;5018222;28;20193;-68
2022/08/07 03:29:50;;;;;;;19.67;10.90;;;10.20;99.90;;;;;;5007777;28;20078;-67
2022/08/07 03:32:21;;;;;;;19.58;10.50;;;10.20;99.90;;;;;;4972487;28;20054;-67
2022/08/07 03:34:49;;;;;;;19.10;10.35;;;10.20;99.90;;;;;;5017153;28;20050;-69
2022/08/07 03:37:18;;;;;;;21.20;10.75;;;10.20;99.90;;;;;;5011991;28;20054;-67
2022/08/07 03:39:46;;;;;;;17.50;10.00;;;10.20;99.90;;;;;;4969549;28;20046;-72
2022/08/07 03:42:14;;;;;;;16.77;10.30;;;10.20;99.90;;;;;;4997460;28;20053;-67
2022/08/07 03:44:41;;;;;;;19.13;11.00;;;10.20;99.90;;;;;;4996524;28;20058;-67
2022/08/07 03:47:08;;;;;;;14.55;8.50;;;10.20;99.90;;;;;;4993872;28;20122;-67
2022/08/07 03:49:35;;;;;;;15.88;9.35;;;10.10;99.90;;;;;;4990679;28;20053;-67
2022/08/07 03:52:02;;;;;;;15.57;9.23;;;10.10;99.90;;;;;;4994991;28;20177;-67
2022/08/07 03:54:28;;;;;;;15.27;8.82;;;10.10;99.90;;;;;;4995988;28;20475;-67
2022/08/07 03:56:55;;;;;;;12.52;7.97;;;10.10;99.90;;;;;;4992840;28;20047;-68
2022/08/07 03:59:22;;;;;;;14.75;8.50;;;10.10;99.90;;;;;;5025778;28;20405;-68
2022/08/07 04:01:48;;;;;;;16.38;9.60;;;10.10;99.90;;;;;;5014192;28;20034;-68
2022/08/07 04:04:18;;;;;;;17.63;8.93;;;10.00;99.90;;;;;;5000667;28;20069;-68
2022/08/07 04:06:44;;;;;;;19.17;10.18;;;10.10;99.90;;;;;;4993884;28;20420;-67
2022/08/07 04:09:12;;;;;;;18.13;10.30;;;10.00;99.90;;;;;;4978622;28;20127;-68
2022/08/07 04:11:38;;;;;;;22.92;11.15;;;10.10;99.90;;;;;;5001576;28;20062;-67
2022/08/07 04:14:06;;;;;;;20.73;11.20;;;10.10;99.90;;;;;;4993764;28;20135;-70
2022/08/07 04:16:32;;;;;;;18.92;10.80;;;10.20;99.90;;;;;;4993605;28;20125;-67
2022/08/07 04:19:00;;;;;;;20.23;10.95;;;10.20;99.90;;;;;;4990631;28;20174;-68
2022/08/07 04:21:26;;;;;;;12.27;7.40;;;10.20;99.90;;;;;;5023069;28;20054;-67
2022/08/07 04:23:52;;;;;;;16.80;9.75;;;10.10;99.90;;;;;;4990152;28;20049;-71
2022/08/07 04:26:18;;;;;;;18.85;10.85;;;10.00;99.90;;;;;;4987124;28;20038;-67
2022/08/07 04:28:44;;;;;;;18.42;10.45;;;10.20;99.90;;;;;;5017565;28;20050;-68
2022/08/07 04:31:11;;;;;;;22.55;11.25;;;10.20;99.90;;;;;;4998280;28;19922;-67
2022/08/07 04:33:38;;;;;;;18.17;10.45;;;10.20;99.90;;;;;;4993516;28;20038;-67
2022/08/07 04:36:07;;;;;;;20.17;11.73;;;10.30;99.90;;;;;;4993456;28;20061;-67
2022/08/07 04:38:34;;;;;;;20.65;11.10;;;10.30;99.90;;;;;;5010917;28;20109;-67
2022/08/07 04:41:00;;;;;;;22.25;11.68;;;10.30;99.90;;;;;;4996660;28;20077;-71
2022/08/07 04:43:36;;;;;;;19.67;11.25;;;10.40;99.90;;;;;;4989174;28;20059;-67
2022/08/07 04:46:29;;;;;;;19.80;11.13;;;10.40;99.90;;;;;;4971977;28;20062;-67
2022/08/07 04:49:01;;;;;;;20.38;11.18;;;10.50;99.90;;;;;;4976226;28;20072;-69
2022/08/07 04:51:43;;;;;;;16.40;9.52;;;10.50;99.90;;;;;;4998611;28;20056;-68
2022/08/07 04:54:26;;;;;;;15.65;9.10;;;10.50;99.90;;;;;;5021257;28;20056;-68
2022/08/07 04:57:26;;;;;;;17.67;8.98;;;10.50;99.90;;;;;;5006509;28;20051;-68
2022/08/07 05:00:14;;;;;;;20.23;10.60;;;10.60;99.90;;;;;;4980838;28;20054;-71
2022/08/07 05:03:00;;;;;;;19.67;11.00;;;10.80;99.90;;;;;;4993472;28;20050;-68
2022/08/07 05:05:34;;;;;;;20.05;11.43;;;10.80;99.90;;;;;;5004818;28;20100;-69
2022/08/07 05:08:06;;;;;;;18.73;11.18;;;11.00;99.90;;;;;;4987629;28;20050;-72
2022/08/07 05:10:36;;;;;;;20.98;11.68;;;11.10;99.90;;;;;;4975579;28;20053;-68
2022/08/07 05:13:29;;;;;;;23.80;12.35;;;11.20;99.90;;;;;;4986483;28;20099;-68
2022/08/07 05:15:58;;;;;;;23.15;12.90;;;11.30;99.90;;;;;;4995217;28;20073;-68
2022/08/07 05:18:33;;;;;;;22.55;13.10;;;11.40;99.90;;;;;;4987049;28;20501;-68
2022/08/07 05:21:02;;;;;;;19.98;12.43;;;11.50;99.90;;;;;;4991807;28;20054;-70
2022/08/07 05:23:36;;;;;;;20.17;12.15;;;11.60;99.90;;;;;;4995860;28;20125;-69
2022/08/07 05:26:04;;;;;;;20.55;11.27;;;11.70;99.90;;;;;;5019094;28;20042;-68
2022/08/07 05:28:33;;;;;;;22.85;12.90;;;11.80;99.90;;;;;;4988863;28;20061;-68
2022/08/07 05:31:00;;;;;;;21.02;12.73;;;11.90;99.90;;;;;;4980555;28;20464;-69
2022/08/07 05:33:28;;;;;;;21.25;12.40;;;12.10;99.90;;;;;;4990274;28;20041;-68
2022/08/07 05:35:55;;;;;;;24.52;12.70;;;12.10;99.90;;;;;;5000144;28;20054;-67
2022/08/07 05:38:21;;;;;;;20.63;11.77;;;12.40;99.90;;;;;;5012530;28;20047;-68
2022/08/07 05:40:48;;;;;;;19.23;12.07;;;12.50;99.90;;;;;;5012209;28;20051;-71
2022/08/07 05:43:15;;;;;;;18.90;11.50;;;12.60;99.90;;;;;;5016090;28;20058;-68
2022/08/07 05:45:42;;;;;;;19.83;11.23;;;12.70;99.90;;;;;;4995349;28;20085;-68
2022/08/07 05:48:08;;;;;;;18.55;11.68;;;12.90;99.90;;;;;;4974841;28;20097;-67
2022/08/07 05:50:35;;;;;;;18.20;11.40;;;13.10;99.90;;;;;;4983638;28;20105;-68
2022/08/07 05:53:02;;;;;;;19.70;11.70;;;13.30;99.90;;;;;;5023389;28;20085;-68
2022/08/07 05:55:29;;;;;;;19.83;11.75;;;13.40;99.90;;;;;;4994393;28;20076;-68
2022/08/07 05:57:56;;;;;;;15.70;10.57;;;13.60;99.90;;;;;;4988447;28;20121;-69
2022/08/07 06:00:24;;;;;;;21.00;11.82;;;13.70;99.90;;;;;;4984140;28;20081;-71
2022/08/07 06:02:52;;;;;;;20.17;12.32;;;13.90;99.90;;;;;;4972587;28;20398;-68
2022/08/07 06:05:20;;;;;;;21.42;12.43;;;14.10;99.90;;;;;;5007177;28;20109;-68
2022/08/07 06:07:48;;;;;;;18.38;11.82;;;14.20;99.90;;;;;;4991014;28;20054;-68
2022/08/07 06:10:14;;;;;;;19.85;11.73;;;14.30;99.90;;;;;;4995688;28;20492;-69
2022/08/07 06:12:40;;;;;;;19.67;11.85;;;14.50;99.90;;;;;;4998187;28;20046;-68
2022/08/07 06:15:10;;;;;;;19.55;12.07;;;14.60;99.90;;;;;;4991663;28;20108;-68
2022/08/07 06:17:36;;;;;;;22.95;12.43;;;14.80;99.90;;;;;;4991484;28;20039;-69
2022/08/07 06:20:03;;;;;;;21.08;12.65;;;14.90;99.90;;;;;;4990159;28;20500;-68
2022/08/07 06:22:32;;;;;;;20.77;13.18;;;15.10;99.90;;;;;;4996957;28;20050;-69
2022/08/07 06:24:58;;;;;;;22.65;11.98;;;15.20;99.90;;;;;;5010046;28;20061;-68
2022/08/07 06:27:25;;;;;;;18.02;12.02;;;15.40;99.90;;;;;;4999443;28;20476;-68
2022/08/07 06:29:51;;;;;;;20.15;12.32;;;15.50;99.90;;;;;;4974929;28;20074;-68
2022/08/07 06:32:18;;;;;;;17.67;11.85;;;15.60;99.90;;;;;;4992918;28;20053;-68
2022/08/07 06:34:44;;;;;;;16.40;11.27;;;15.80;99.90;;;;;;4988075;28;20047;-69
2022/08/07 06:37:10;;;;;;;18.17;11.55;;;15.90;99.90;;;;;;5004450;28;20047;-68
2022/08/07 06:39:37;;;;;;;18.48;11.82;;;16.10;99.90;;;;;;4986023;28;20042;-68
2022/08/07 06:42:07;;;;;;;18.10;10.98;;;16.20;99.90;;;;;;5021132;28;20108;-69
2022/08/07 06:44:35;;;;;;;17.20;10.80;;;16.40;99.90;;;;;;5001081;28;20042;-68
2022/08/07 06:47:02;;;;;;;18.77;11.20;;;16.50;99.90;;;;;;4980843;28;20050;-68
2022/08/07 06:49:28;;;;;;;16.83;11.13;;;16.50;99.90;;;;;;4996399;28;20053;-68
2022/08/07 06:51:57;;;;;;;18.65;11.18;;;16.60;99.90;;;;;;5012832;28;20057;-68
2022/08/07 06:54:25;;;;;;;19.23;11.45;;;16.70;99.90;;;;;;5022477;28;20393;-70
2022/08/07 06:56:54;;;;;;;15.57;10.45;;;16.80;99.90;;;;;;5022611;28;20050;-69
2022/08/07 06:59:26;;;;;;;16.42;10.48;;;17.00;99.90;;;;;;4977842;28;20181;-68
2022/08/07 07:01:55;;;;;;;14.95;9.90;;;17.10;99.90;;;;;;5022567;28;20042;-70
2022/08/07 07:04:21;;;;;;;16.08;9.55;;;17.20;99.90;;;;;;4998030;28;20045;-68
2022/08/07 07:06:47;;;;;;;12.35;8.32;;;17.40;99.90;;;;;;5026726;28;20053;-67
2022/08/07 07:09:23;;;;;;;16.63;9.68;;;17.50;99.90;;;;;;5014272;28;20058;-68
2022/08/07 07:12:43;;;;;;;14.98;8.60;;;17.60;99.90;;;;;;4982602;28;20038;-68
2022/08/07 07:15:26;;;;;;;12.55;8.52;;;17.70;99.90;;;;;;4954539;28;20279;-68
2022/08/07 07:18:09;;;;;;;13.70;8.73;;;17.80;99.90;;;;;;4970610;28;20520;-71
2022/08/07 07:20:54;;;;;;;13.63;9.40;;;17.90;99.90;;;;;;5000604;28;20054;-69
2022/08/07 07:23:21;;;;;;;11.38;7.25;;;18.00;99.90;;;;;;5008632;28;20034;-70
2022/08/07 07:25:51;;;;;;;11.68;7.50;;;18.10;99.90;;;;;;5004137;28;20393;-68
2022/08/07 07:28:21;;;;;;;11.60;7.72;;;18.10;99.90;;;;;;4992359;28;20400;-68
2022/08/07 07:31:03;;;;;;;9.82;6.30;;;18.20;99.90;;;;;;5000888;28;20113;-69
2022/08/07 07:33:32;;;;;;;9.80;5.97;;;18.30;99.90;;;;;;5004539;28;20070;-68
2022/08/07 07:35:59;;;;;;;7.60;3.92;;;18.40;99.90;;;;;;5007118;28;20369;-68
2022/08/07 07:38:25;;;;;;;4.95;3.92;;;18.40;99.90;;;;;;5017327;28;20056;-68
2022/08/07 07:40:55;;;;;;;8.48;6.35;;;18.50;99.90;;;;;;5001619;28;20041;-68
2022/08/07 07:43:22;;;;;;;8.52;5.53;;;18.60;99.90;;;;;;5007125;28;20121;-68
2022/08/07 07:45:49;;;;;;;8.20;5.30;;;18.60;99.90;;;;;;4997139;28;20064;-68
2022/08/07 07:48:23;;;;;;;7.05;4.90;;;18.70;99.90;;;;;;4981816;28;20493;-68
2022/08/07 07:50:54;;;;;;;7.90;5.95;;;18.90;99.90;;;;;;4995797;28;20457;-69
2022/08/07 07:53:22;;;;;;;7.18;5.20;;;19.00;99.90;;;;;;4989795;28;20617;-69
2022/08/07 07:55:49;;;;;;;9.55;5.95;;;18.90;99.90;;;;;;5020341;28;20122;-69
2022/08/07 07:58:15;;;;;;;7.20;5.45;;;19.10;99.90;;;;;;4991182;28;20129;-68
2022/08/07 08:00:43;;;;;;;5.15;4.40;;;19.20;99.90;;;;;;4994391;28;20081;-69
2022/08/07 08:03:12;;;;;;;4.80;3.75;;;19.30;99.90;;;;;;5009679;28;20085;-71
2022/08/07 08:05:42;;;;;;;8.23;4.57;;;19.30;99.90;;;;;;5023084;28;20058;-70
2022/08/07 08:08:10;;;;;;;6.80;4.53;;;19.40;99.90;;;;;;4985024;28;20182;-68
2022/08/07 08:10:38;;;;;;;5.97;4.80;;;19.50;99.90;;;;;;4994291;28;20074;-68
2022/08/07 08:13:06;;;;;;;6.28;4.60;;;19.60;99.90;;;;;;5023065;28;20541;-69
2022/08/07 08:15:35;;;;;;;6.80;4.50;;;19.60;99.90;;;;;;5026542;28;20046;-69
2022/08/07 08:18:02;;;;;;;7.38;5.18;;;19.70;99.90;;;;;;4973592;28;20568;-68
2022/08/07 08:20:31;;;;;;;7.55;4.78;;;19.60;99.90;;;;;;4990699;28;20069;-68
2022/08/07 08:28:34;;;;;;;8.10;4.10;;;19.90;99.90;;;;;;5016858;28;20054;-69
2022/08/07 08:31:04;;;;;;;6.30;3.83;;;20.10;99.90;;;;;;4993019;28;20077;-69
2022/08/07 08:33:33;;;;;;;8.57;4.40;;;20.00;99.90;;;;;;5026183;28;20046;-68
2022/08/07 08:36:00;;;;;;;6.88;4.10;;;20.00;99.90;;;;;;4987426;28;20154;-68
2022/08/07 08:38:32;;;;;;;5.85;4.05;;;20.10;99.90;;;;;;4972209;28;20337;-68
2022/08/07 08:41:29;;;;;;;5.15;3.70;;;20.10;99.90;;;;;;4990020;28;20046;-69
2022/08/07 08:44:22;;;;;;;5.00;3.20;;;20.20;99.90;;;;;;4991419;28;20054;-69
2022/08/07 08:46:59;;;;;;;3.10;2.80;;;20.30;99.90;;;;;;5010248;28;20482;-69
2022/08/07 08:49:39;;;;;;;4.50;3.10;;;20.20;99.90;;;;;;5003633;28;20401;-68
2022/08/07 08:52:15;;;;;;;4.20;3.10;;;19.80;99.90;;;;;;4986893;28;20051;-72
2022/08/07 08:54:49;;;;;;;3.97;2.95;;;19.90;99.90;;;;;;5010480;28;20131;-72
2022/08/07 08:57:41;;;;;;;3.78;2.95;;;20.20;99.90;;;;;;5025729;28;20046;-70
2022/08/07 09:00:09;;;;;;;4.63;2.95;;;20.30;99.90;;;;;;4993079;28;20540;-68
2022/08/07 09:02:38;;;;;;;4.90;3.03;;;20.00;99.90;;;;;;5010958;28;20054;-68
2022/08/07 09:05:38;;;;;;;4.13;3.00;;;20.10;99.90;;;;;;5010498;28;20084;-68
2022/08/07 09:08:29;;;;;;;4.07;3.17;;;20.50;99.90;;;;;;5024338;28;20081;-68
2022/08/07 09:11:14;;;;;;;;;;;20.80;99.90;;;;;;4992739;28;20050;-67
2022/08/07 09:14:02;;;;;;;4.97;3.30;;;20.90;96.80;;;;;;4992675;28;19926;-70
2022/08/07 09:16:46;;;;;;;4.10;3.08;;;21.10;97.60;;;;;;5000136;28;20185;-68
2022/08/07 09:19:43;;;;;;;4.30;2.90;;;21.10;97.10;;;;;;5000100;28;20088;-68
2022/08/07 09:22:30;;;;;;;4.25;2.70;;;21.30;98.50;;;;;;4992276;28;20161;-71
2022/08/07 09:25:09;;;;;;;2.72;2.40;;;21.40;97.40;;;;;;4992448;28;20489;-68
2022/08/07 09:27:41;;;;;;;3.67;2.83;;;21.50;95.00;;;;;;5011099;28;20125;-71
2022/08/07 09:30:09;;;;;;;3.45;2.65;;;21.60;96.10;;;;;;5024932;28;20056;-68
2022/08/07 09:33:03;;;;;;;4.38;2.80;;;21.70;94.90;;;;;;4989098;28;20078;-67
2022/08/07 09:35:41;;;;;;;3.92;2.80;;;21.80;92.90;;;;;;5013070;28;20046;-69
2022/08/07 09:38:28;;;;;;;3.50;2.70;;;22.00;94.90;;;;;;4996788;28;20045;-69
2022/08/07 09:41:06;;;;;;;3.58;3.00;;;22.10;92.10;;;;;;4999083;28;20050;-69
2022/08/07 09:44:01;;;;;;;3.63;2.60;;;22.10;93.60;;;;;;5000841;28;20512;-69
2022/08/07 09:47:01;;;;;;;4.50;2.83;;;22.20;91.50;;;;;;4993356;28;20113;-68
2022/08/07 09:49:59;;;;;;;5.77;2.57;;;22.40;91.40;;;;;;4991376;28;20050;-69
2022/08/07 09:52:56;;;;;;;4.72;2.35;;;22.60;90.20;;;;;;5018526;28;20400;-68
2022/08/07 09:55:56;;;;;;;4.05;2.90;;;22.50;87.50;;;;;;5021301;28;20076;-71
2022/08/07 09:58:51;;;;;;;3.47;2.60;;;22.40;83.90;;;;;;4988520;28;20046;-68
2022/08/07 10:01:29;;;;;;;3.92;2.72;;;22.30;84.40;;;;;;4989723;28;20432;-68
2022/08/07 10:04:08;;;;;;;4.47;2.80;;;22.50;88.30;;;;;;4991818;28;20062;-68
2022/08/07 10:07:02;;;;;;;3.50;2.83;;;22.50;87.30;;;;;;4986679;28;20038;-68
2022/08/07 10:09:51;;;;;;;3.50;2.63;;;22.30;85.80;;;;;;4991207;28;20048;-68
2022/08/07 10:12:44;;;;;;;4.03;2.50;;;22.30;85.20;;;;;;4991725;28;20497;-68
2022/08/07 10:15:10;;;;;;;3.67;2.42;;;22.00;83.30;;;;;;4976694;28;20042;-69
2022/08/07 10:17:58;;;;;;;4.43;2.60;;;22.20;85.50;;;;;;4998204;28;20050;-69
2022/08/07 10:20:31;;;;;;;2.78;2.35;;;22.30;83.00;;;;;;4974687;28;20054;-68
2022/08/07 10:23:15;;;;;;;3.40;2.35;;;22.20;84.40;;;;;;5007642;28;20113;-68
2022/08/07 10:26:14;;;;;;;3.83;2.60;;;22.30;82.90;;;;;;4994194;28;20068;-68
2022/08/07 10:28:57;;;;;;;3.75;2.60;;;22.60;79.50;;;;;;4998593;28;20048;-68
2022/08/07 10:31:55;;;;;;;2.50;2.17;;;22.80;77.30;;;;;;4990974;28;20046;-72
2022/08/07 10:34:59;;;;;;;3.25;2.60;;;23.10;78.80;;;;;;4967552;28;20508;-71
2022/08/07 10:37:50;;;;;;;5.65;2.50;;;23.40;76.00;;;;;;4992350;28;20049;-68
2022/08/07 10:40:49;;;;;;;4.35;2.80;;;23.20;74.50;;;;;;5024051;28;20046;-69
2022/08/07 10:43:32;;;;;;;5.22;3.00;;;23.20;73.70;;;;;;4990781;28;20058;-69
2022/08/07 10:46:00;;;;;;;3.83;2.40;;;23.20;75.40;;;;;;5023362;28;20441;-69
2022/08/07 10:48:54;;;;;;;3.53;2.58;;;23.30;76.70;;;;;;5023633;28;20386;-69
2022/08/07 10:51:33;;;;;;;3.85;2.45;;;23.30;73.80;;;;;;4996394;28;20073;-69
2022/08/07 10:54:45;;;;;;;2.60;2.40;;;23.20;73.50;;;;;;4974955;28;20130;-68
2022/08/07 10:57:49;;;;;;;3.22;2.30;;;23.20;73.60;;;;;;4988220;28;20141;-70
2022/08/07 11:00:17;;;;;;;3.15;2.45;;;23.10;71.60;;;;;;4975016;28;20050;-68
2022/08/07 11:02:58;;;;;;;2.67;2.38;;;23.10;74.30;;;;;;4991030;28;20505;-68
2022/08/07 11:05:48;;;;;;;;;;;23.10;72.00;;;;;;5006175;28;20054;-69
2022/08/07 11:08:52;;;;;;;2.80;2.08;;;23.30;69.00;;;;;;5020377;28;20024;-68
2022/08/07 11:11:54;;;;;;;3.72;2.40;;;23.30;69.50;;;;;;4987577;28;20134;-68
2022/08/07 11:14:34;;;;;;;4.00;2.30;;;23.60;71.70;;;;;;4958665;28;20065;-68
2022/08/07 11:17:23;;;;;;;3.28;2.13;;;23.70;68.10;;;;;;5003965;28;20072;-69
2022/08/07 11:19:56;;;;;;;4.35;2.28;;;24.10;68.80;;;;;;4993181;28;20452;-69
2022/08/07 11:22:50;;;;;;;4.03;2.20;;;24.30;68.90;;;;;;4991281;28;20433;-71
2022/08/07 11:25:31;;;;;;;2.42;2.10;;;23.90;64.80;;;;;;4990680;28;20432;-69
2022/08/07 11:28:01;;;;;;;;;;;24.00;66.60;;;;;;4990738;28;20058;-69
2022/08/07 11:30:53;;;;;;;4.60;2.45;;;24.20;63.00;;;;;;4974435;28;19922;-68
2022/08/07 11:33:42;;;;;;;2.60;2.00;;;24.10;63.20;;;;;;4984022;28;20105;-68
2022/08/07 11:36:24;;;;;;;2.30;2.10;;;24.40;64.20;;;;;;4967716;28;20043;-69
2022/08/07 11:39:16;;;;;;;2.75;1.70;;;24.40;62.90;;;;;;4983199;28;20109;-68
2022/08/07 11:41:54;;;;;;;2.20;2.00;;;24.20;58.20;;;;;;4994296;28;20061;-68
2022/08/07 11:44:31;;;;;;;2.20;1.98;;;24.30;60.50;;;;;;4994671;28;20061;-68
2022/08/07 11:47:23;;;;;;;3.88;2.40;;;24.30;59.60;;;;;;4994025;28;20062;-68
2022/08/07 11:50:24;;;;;;;4.50;2.28;;;24.30;59.70;;;;;;4974338;28;20441;-69
2022/08/07 11:52:56;;;;;;;;;;;24.70;61.70;;;;;;4975592;28;20069;-68
2022/08/07 11:55:51;;;;;;;2.60;2.17;;;24.50;57.10;;;;;;5015817;28;20392;-68
2022/08/07 11:58:45;;;;;;;3.17;1.92;;;24.60;57.30;;;;;;4983111;28;20126;-69
2022/08/07 12:01:11;;;;;;;2.85;2.05;;;24.50;58.20;;;;;;4977479;28;20461;-69
2022/08/07 12:04:07;;;;;;;2.40;1.95;;;24.50;60.10;;;;;;5002468;28;20117;-68
2022/08/07 12:06:33;;;;;;;2.05;1.75;;;24.40;58.20;;;;;;4977951;28;20564;-68
2022/08/07 12:09:11;;;;;;;2.40;2.00;;;24.60;60.00;;;;;;4993173;28;20161;-68
2022/08/07 12:12:06;;;;;;;1.75;1.65;;;24.80;56.50;;;;;;4993612;28;20089;-68
2022/08/07 12:14:50;;;;;;;2.38;1.95;;;25.10;56.50;;;;;;4993855;28;20096;-68
2022/08/07 12:17:19;;;;;;;2.63;2.03;;;25.10;56.60;;;;;;4993582;28;20508;-69
2022/08/07 12:20:04;;;;;;;3.33;1.60;;;24.90;57.60;;;;;;5002037;28;20073;-68
2022/08/07 12:22:43;;;;;;;1.80;1.70;;;25.10;54.30;;;;;;4977584;28;20408;-69
2022/08/07 12:25:51;;;;;;;3.33;2.00;;;25.50;56.30;;;;;;4993423;28;20062;-69
2022/08/07 12:28:24;;;;;;;2.47;2.00;;;25.70;54.90;;;;;;4993192;28;20061;-69
2022/08/07 12:30:54;;;;;;;3.25;1.90;;;26.20;56.70;;;;;;5026287;28;20042;-69
2022/08/07 12:33:25;;;;;;;3.15;1.90;;;26.70;57.00;;;;;;5025569;28;20096;-70
2022/08/07 12:35:52;;;;;;;2.05;1.85;;;27.10;56.20;;;;;;5026409;28;20050;-68
2022/08/07 12:38:20;;;;;;;2.15;1.60;;;26.80;56.60;;;;;;4993029;28;20057;-69
2022/08/07 12:40:48;;;;;;;2.15;1.95;;;26.80;55.30;;;;;;4993517;28;20056;-70
2022/08/07 12:43:22;;;;;;;3.33;2.10;;;27.30;56.00;;;;;;5025505;28;20046;-69
2022/08/07 12:46:32;;;;;;;2.40;1.88;;;27.80;56.20;;;;;;5025919;28;20066;-69
2022/08/07 12:49:30;;;;;;;2.58;1.80;;;28.00;50.50;;;;;;4975553;28;20082;-69
2022/08/07 12:52:11;;;;;;;1.80;1.70;;;27.90;51.90;;;;;;4988762;28;20053;-69
2022/08/07 12:54:57;;;;;;;2.17;1.98;;;28.10;50.40;;;;;;4994836;28;20059;-70
2022/08/07 12:57:30;;;;;;;2.50;1.90;;;27.70;49.90;;;;;;4997187;28;20453;-70
2022/08/07 12:59:59;;;;;;;1.60;1.50;;;27.70;50.50;;;;;;4992779;28;20400;-69
2022/08/07 13:02:46;;;;;;;2.35;1.75;;;28.30;52.20;;;;;;4992993;28;20177;-69
2022/08/07 13:05:51;;;;;;;2.53;1.55;;;28.40;50.60;;;;;;4993080;28;20070;-71
2022/08/07 13:08:49;;;;;;;2.20;1.80;;;28.30;48.70;;;;;;4975829;28;20082;-68
2022/08/07 13:11:21;;;;;;;1.85;1.75;;;29.00;48.80;;;;;;5013761;28;20409;-68
2022/08/07 13:14:00;;;;;;;1.75;1.55;;;29.40;49.00;;;;;;4992816;28;20129;-69
2022/08/07 13:16:45;;;;;;;2.20;1.88;;;29.80;48.60;;;;;;4992398;28;20412;-69
2022/08/07 13:19:22;;;;;;;3.05;1.60;;;29.70;47.60;;;;;;4992264;28;20078;-69
2022/08/07 13:22:18;;;;;;;1.70;1.60;;;30.30;47.20;;;;;;4992752;28;20142;-69